Time;durP1;ratioP1;P1;durP2;ratioP2;P2;SDS_P1;SDS_P2;PMS_P1;PMS_P2;Temp;Humidity;BMP_temperature;BMP_pressure;BME280_temperature;BME280_humidity;BME280_pressure;Samples;Min_cycle;Max_cycle;Signal;HPM_P1;HPM_P2
2023/04/12 00:00:30;;;;;;;0.52;0.45;;;;;;;8.48;91.97;100469.63;5013158;28;97873;-30
2023/04/12 00:02:58;;;;;;;3.92;0.88;;;;;;;8.42;93.21;100459.19;5011509;28;101289;-30
2023/04/12 00:05:26;;;;;;;0.60;0.40;;;;;;;8.38;93.24;100444.09;5011079;28;97969;-30
2023/04/12 00:07:52;;;;;;;2.00;0.60;;;;;;;8.40;93.11;100447.63;5011489;28;96837;-30
2023/04/12 00:10:18;;;;;;;0.60;0.45;;;;;;;8.38;94.82;100435.16;5012747;28;98076;-30
2023/04/12 00:12:45;;;;;;;0.57;0.43;;;;;;;8.40;93.80;100430.56;5012831;28;97758;-30
2023/04/12 00:15:10;;;;;;;2.55;1.02;;;;;;;8.38;94.50;100419.81;5011376;28;96649;-30
2023/04/12 00:17:36;;;;;;;4.70;0.80;;;;;;;8.36;95.12;100405.53;5012737;28;96828;-29
2023/04/12 00:20:04;;;;;;;2.80;0.63;;;;;;;8.37;94.84;100411.84;5012842;28;97396;-29
2023/04/12 00:22:30;;;;;;;0.38;0.25;;;;;;;8.35;95.62;100397.56;5012695;28;97709;-29
2023/04/12 00:24:55;;;;;;;3.75;0.70;;;;;;;8.35;94.89;100378.66;5011312;28;96552;-29
2023/04/12 00:27:21;;;;;;;0.63;0.50;;;;;;;8.38;94.08;100386.56;5012569;28;96749;-29
2023/04/12 00:29:46;;;;;;;1.88;0.57;;;;;;;8.35;93.68;100363.34;5011866;28;99211;-30
2023/04/12 00:32:11;;;;;;;6.05;0.52;;;;;;;8.33;94.85;100359.00;5012298;28;98796;-29
2023/04/12 00:34:37;;;;;;;0.20;0.08;;;;;;;8.28;94.53;100345.78;5012744;28;96837;-30
2023/04/12 00:37:02;;;;;;;2.53;0.90;;;;;;;8.29;94.44;100355.59;5012508;28;96759;-30
2023/04/12 00:39:28;;;;;;;2.78;0.88;;;;;;;8.24;95.24;100344.22;5012051;28;99243;-30
2023/04/12 00:41:55;;;;;;;1.85;0.40;;;;;;;8.22;95.06;100325.44;5012531;28;97837;-29
2023/04/12 00:44:21;;;;;;;0.47;0.30;;;;;;;8.25;95.28;100322.56;5012241;28;96683;-30
2023/04/12 00:46:47;;;;;;;0.52;0.25;;;;;;;8.23;95.61;100313.69;5011337;28;96787;-31
2023/04/12 00:49:12;;;;;;;0.82;0.20;;;;;;;8.24;95.43;100311.84;5012760;28;96747;-31
2023/04/12 00:51:38;;;;;;;1.90;0.57;;;;;;;8.21;95.43;100302.13;5012289;28;97813;-30
2023/04/12 00:54:05;;;;;;;1.13;0.60;;;;;;;8.20;96.43;100302.19;5011866;28;96724;-31
2023/04/12 00:56:31;;;;;;;1.63;0.77;;;;;;;8.19;95.79;100290.53;5010663;28;96877;-30
2023/04/12 00:58:57;;;;;;;0.55;0.38;;;;;;;8.18;95.31;100278.03;5010641;28;101000;-30
2023/04/12 01:01:22;;;;;;;2.75;1.05;;;;;;;8.16;95.11;100273.69;5010699;28;100801;-30
2023/04/12 01:03:51;;;;;;;1.10;0.77;;;;;;;8.17;96.00;100270.88;5010653;28;96716;-31
2023/04/12 01:06:46;;;;;;;2.15;0.80;;;;;;;8.17;96.03;100261.91;5012144;28;96797;-30
2023/04/12 01:09:26;;;;;;;1.13;0.60;;;;;;;8.16;95.67;100263.75;5012196;28;97817;-30
2023/04/12 01:12:10;;;;;;;1.55;0.75;;;;;;;8.13;96.16;100246.88;5010861;28;100972;-31
2023/04/12 01:15:01;;;;;;;1.88;0.52;;;;;;;8.17;95.27;100241.19;5011819;28;96545;-30
2023/04/12 01:17:29;;;;;;;3.78;0.90;;;;;;;8.15;95.29;100228.78;5010618;28;96733;-30
2023/04/12 01:20:12;;;;;;;2.50;0.60;;;;;;;8.13;95.93;100219.91;5009835;28;101080;-30
2023/04/12 01:22:48;;;;;;;;;;;;;;;8.16;95.49;100223.28;5010596;28;100963;-29
2023/04/12 01:25:33;;;;;;;0.17;0.17;;;;;;;8.12;95.67;100218.19;5010370;28;96554;-30
2023/04/12 01:28:03;;;;;;;0.68;0.45;;;;;;;8.09;96.44;100211.16;5010318;28;96729;-31
2023/04/12 01:30:30;;;;;;;0.77;0.50;;;;;;;8.01;96.58;100198.13;5010173;28;101210;-30
2023/04/12 01:32:59;;;;;;;1.00;0.38;;;;;;;8.06;96.51;100196.03;5011515;28;98884;-31
2023/04/12 01:35:30;;;;;;;2.67;0.80;;;;;;;8.04;96.43;100197.94;5010438;28;96677;-30
2023/04/12 01:38:00;;;;;;;0.17;0.17;;;;;;;8.02;96.71;100180.97;5011906;28;96799;-31
2023/04/12 01:40:27;;;;;;;2.40;0.77;;;;;;;8.02;96.41;100180.97;5011504;28;97993;-29
2023/04/12 01:43:14;;;;;;;9.32;0.57;;;;;;;8.02;96.62;100164.81;5009779;28;101046;-30
2023/04/12 01:45:40;;;;;;;2.65;0.50;;;;;;;8.01;95.86;100152.28;5009781;28;97100;-31
2023/04/12 01:48:07;;;;;;;0.55;0.35;;;;;;;8.00;96.55;100145.16;5011620;28;96768;-30
2023/04/12 01:50:56;;;;;;;0.50;0.32;;;;;;;8.01;96.29;100138.81;5010051;28;101379;-30
2023/04/12 01:53:48;;;;;;;0.98;0.52;;;;;;;8.01;97.25;100127.16;5011669;28;97900;-30
2023/04/12 01:56:16;;;;;;;1.58;0.93;;;;;;;7.98;96.89;100117.41;5003326;28;96692;-30
2023/04/12 01:58:45;;;;;;;0.30;0.30;;;;;;;8.02;96.68;100115.41;5011661;28;96818;-31
2023/04/12 02:01:14;;;;;;;0.52;0.35;;;;;;;8.02;96.76;100107.31;5013349;28;101263;-30
2023/04/12 02:03:44;;;;;;;0.13;0.10;;;;;;;8.00;97.32;100096.59;5013784;28;101441;-30
2023/04/12 02:06:10;;;;;;;2.35;0.88;;;;;;;8.01;97.18;100100.19;5013486;28;96566;-32
2023/04/12 02:08:36;;;;;;;1.25;0.38;;;;;;;7.98;98.09;100086.88;5013389;28;96997;-30
2023/04/12 02:11:09;;;;;;;1.42;0.60;;;;;;;7.99;97.28;100078.69;5013958;28;99809;-30
2023/04/12 02:13:34;;;;;;;2.42;0.45;;;;;;;8.00;97.40;100074.16;5013208;28;100949;-30
2023/04/12 02:16:01;;;;;;;0.90;0.55;;;;;;;7.99;97.35;100076.00;5015005;28;96907;-31
2023/04/12 02:18:27;;;;;;;0.65;0.35;;;;;;;7.98;98.49;100074.25;5014597;28;96792;-30
2023/04/12 02:20:53;;;;;;;0.00;0.00;;;;;;;7.96;99.07;100081.59;5013135;28;100758;-30
2023/04/12 02:23:18;;;;;;;1.10;0.40;;;;;;;7.97;98.19;100056.34;5014281;28;97938;-30
2023/04/12 02:25:45;;;;;;;1.35;0.60;;;;;;;7.97;98.54;100056.34;5014300;28;96710;-29
2023/04/12 02:28:12;;;;;;;0.98;0.35;;;;;;;7.97;99.60;100058.19;5015169;28;96727;-30
2023/04/12 02:30:40;;;;;;;5.00;0.80;;;;;;;7.97;99.24;100045.56;5012986;28;100982;-29
2023/04/12 02:33:08;;;;;;;0.38;0.30;;;;;;;7.95;100.00;100039.41;5012908;28;101303;-30
2023/04/12 02:35:35;;;;;;;2.38;0.40;;;;;;;7.97;99.64;100025.84;5012470;28;97102;-29
2023/04/12 02:38:02;;;;;;;0.28;0.20;;;;;;;7.99;99.77;100024.78;5012946;28;97162;-31
2023/04/12 02:40:28;;;;;;;0.10;0.10;;;;;;;7.97;100.00;100026.69;5012732;28;101159;-30
2023/04/12 02:42:54;;;;;;;0.28;0.10;;;;;;;7.98;100.00;100028.41;5012477;28;101196;-30
2023/04/12 02:45:19;;;;;;;4.85;0.73;;;;;;;7.96;100.00;100014.19;5014472;28;96562;-30
2023/04/12 02:47:45;;;;;;;2.30;0.60;;;;;;;7.97;99.74;100007.81;5013990;28;96843;-30
2023/04/12 02:50:10;;;;;;;1.55;0.45;;;;;;;7.94;100.00;99999.06;5014114;28;97550;-29
2023/04/12 02:52:36;;;;;;;1.17;0.73;;;;;;;7.90;100.00;100003.78;5014366;28;97409;-30
2023/04/12 02:55:01;;;;;;;0.65;0.50;;;;;;;7.92;100.00;99996.47;5014013;28;96663;-30
2023/04/12 02:57:27;;;;;;;1.42;0.43;;;;;;;7.88;100.00;99989.53;5012496;28;96888;-30
2023/04/12 02:59:53;;;;;;;1.02;0.90;;;;;;;7.91;100.00;99994.72;5012004;28;98856;-30
2023/04/12 03:02:21;;;;;;;0.55;0.20;;;;;;;7.92;100.00;99979.44;5014075;28;97320;-30
2023/04/12 03:04:49;;;;;;;0.90;0.43;;;;;;;7.92;100.00;99971.34;5012608;28;96592;-30
2023/04/12 03:07:19;;;;;;;3.80;0.43;;;;;;;7.91;100.00;99961.50;5012252;28;96877;-29
2023/04/12 03:09:49;;;;;;;0.77;0.47;;;;;;;7.90;100.00;99966.03;5011065;28;101243;-30
2023/04/12 03:12:15;;;;;;;0.77;0.50;;;;;;;7.93;100.00;99956.88;5012316;28;100926;-31
2023/04/12 03:14:40;;;;;;;0.52;0.30;;;;;;;7.93;100.00;99952.34;5012296;28;96648;-30
2023/04/12 03:17:06;;;;;;;2.50;0.47;;;;;;;7.92;100.00;99952.47;5013961;28;96470;-30
2023/04/12 03:19:33;;;;;;;0.52;0.43;;;;;;;7.91;100.00;99940.78;5013369;28;99320;-31
2023/04/12 03:22:00;;;;;;;0.95;0.30;;;;;;;7.93;100.00;99944.25;5013179;28;99144;-30
2023/04/12 03:24:26;;;;;;;0.10;0.10;;;;;;;7.92;100.00;99939.84;5011057;28;97023;-30
2023/04/12 03:26:52;;;;;;;1.42;0.30;;;;;;;7.95;100.00;99936.94;5012019;28;96856;-30
2023/04/12 03:29:17;;;;;;;0.10;0.10;;;;;;;7.95;100.00;99942.31;5013401;28;99526;-29
2023/04/12 03:31:42;;;;;;;0.55;0.47;;;;;;;7.94;100.00;99927.13;5013448;28;98273;-32
2023/04/12 03:34:08;;;;;;;0.43;0.28;;;;;;;7.93;100.00;99919.97;5013725;28;96734;-29
2023/04/12 03:36:33;;;;;;;1.65;0.40;;;;;;;7.95;100.00;99919.91;5013449;28;96784;-30
2023/04/12 03:38:59;;;;;;;0.15;0.15;;;;;;;7.95;100.00;99925.28;5013384;28;97930;-30
2023/04/12 03:41:25;;;;;;;0.40;0.22;;;;;;;7.94;100.00;99897.47;5013519;28;99222;-31
2023/04/12 03:43:50;;;;;;;0.75;0.30;;;;;;;7.95;100.00;99891.09;5013120;28;96819;-30
2023/04/12 03:46:16;;;;;;;0.35;0.28;;;;;;;7.94;100.00;99892.06;5013189;28;96802;-30
2023/04/12 03:48:42;;;;;;;2.08;0.60;;;;;;;7.98;100.00;99890.88;5012754;28;97836;-31
2023/04/12 03:51:10;;;;;;;0.43;0.30;;;;;;;7.97;100.00;99880.22;5013140;28;97814;-30
2023/04/12 03:53:39;;;;;;;0.35;0.28;;;;;;;7.97;100.00;99880.22;5011742;28;96596;-31
2023/04/12 03:56:05;;;;;;;0.15;0.15;;;;;;;7.99;100.00;99879.16;5012979;28;96797;-30
2023/04/12 03:58:32;;;;;;;0.55;0.40;;;;;;;8.00;100.00;99882.69;5011439;28;101379;-30
2023/04/12 04:01:04;;;;;;;5.78;0.30;;;;;;;7.97;100.00;99869.44;5011525;28;100994;-30
2023/04/12 04:03:33;;;;;;;0.45;0.22;;;;;;;7.96;100.00;99865.00;5012904;28;96646;-30
2023/04/12 04:05:59;;;;;;;5.13;0.20;;;;;;;7.99;100.00;99871.06;5011932;28;96790;-30
2023/04/12 04:08:24;;;;;;;0.30;0.25;;;;;;;7.99;100.00;99864.81;5011368;28;101195;-31
2023/04/12 04:10:50;;;;;;;0.32;0.30;;;;;;;7.99;100.00;99876.44;5013036;28;97435;-32
2023/04/12 04:13:15;;;;;;;0.60;0.45;;;;;;;8.01;100.00;99876.34;5012303;28;96515;-30
2023/04/12 04:15:41;;;;;;;0.52;0.45;;;;;;;8.02;100.00;99865.44;5013182;28;96778;-30
2023/04/12 04:18:06;;;;;;;0.35;0.25;;;;;;;8.03;100.00;99869.91;5012513;28;98508;-32
2023/04/12 04:20:32;;;;;;;0.80;0.47;;;;;;;8.01;100.00;99860.19;5012775;28;97283;-29
2023/04/12 04:22:57;;;;;;;0.32;0.32;;;;;;;8.03;100.00;99869.00;5012629;28;96753;-30
2023/04/12 04:25:28;;;;;;;0.35;0.35;;;;;;;8.05;100.00;99862.53;5013192;28;96554;-32
2023/04/12 04:27:55;;;;;;;0.43;0.40;;;;;;;8.08;100.00;99864.19;5012431;28;98835;-30
2023/04/12 04:30:21;;;;;;;0.65;0.28;;;;;;;8.07;100.00;99857.06;5011376;28;101519;-31
2023/04/12 04:32:47;;;;;;;1.25;0.30;;;;;;;8.07;100.00;99863.31;5011159;28;96771;-29
2023/04/12 04:35:15;;;;;;;0.45;0.30;;;;;;;8.11;100.00;99866.69;5012614;28;96760;-30
2023/04/12 04:37:41;;;;;;;1.90;0.55;;;;;;;8.11;100.00;99872.06;5011715;28;99245;-30
2023/04/12 04:40:13;;;;;;;1.08;0.47;;;;;;;8.12;100.00;99872.94;5012332;28;98826;-30
2023/04/12 04:42:38;;;;;;;1.42;0.28;;;;;;;8.14;100.00;99876.38;5011216;28;96622;-30
2023/04/12 04:45:11;;;;;;;0.17;0.17;;;;;;;8.17;100.00;99873.47;5012522;28;96901;-30
2023/04/12 04:47:38;;;;;;;2.60;0.32;;;;;;;8.18;100.00;99872.53;5011047;28;101215;-30
2023/04/12 04:50:03;;;;;;;0.77;0.47;;;;;;;8.22;100.00;99885.72;5010847;28;99897;-30
2023/04/12 04:52:29;;;;;;;0.57;0.50;;;;;;;8.22;100.00;99882.13;5010971;28;96545;-30
2023/04/12 04:54:56;;;;;;;0.50;0.50;;;;;;;8.23;100.00;99878.47;5012604;28;96785;-30
2023/04/12 04:57:25;;;;;;;0.73;0.57;;;;;;;8.23;100.00;99870.38;5011856;28;99578;-29
2023/04/12 04:59:51;;;;;;;0.52;0.50;;;;;;;8.27;100.00;99877.28;5011725;28;99581;-29
2023/04/12 05:02:16;;;;;;;0.60;0.32;;;;;;;8.25;100.00;99874.69;5011906;28;96654;-30
2023/04/12 05:04:41;;;;;;;1.65;0.85;;;;;;;8.33;100.00;99884.97;5012290;28;96782;-30
2023/04/12 05:07:07;;;;;;;0.65;0.65;;;;;;;8.38;100.00;99882.81;5012050;28;97486;-29
2023/04/12 05:09:32;;;;;;;0.50;0.50;;;;;;;8.42;100.00;99878.13;5012168;28;97731;-29
2023/04/12 05:11:57;;;;;;;1.77;0.60;;;;;;;8.47;100.00;99881.38;5011984;28;96496;-30
2023/04/12 05:14:23;;;;;;;0.65;0.47;;;;;;;8.49;100.00;99877.59;5012223;28;96776;-30
2023/04/12 05:16:48;;;;;;;0.80;0.73;;;;;;;8.53;100.00;99883.63;5010580;28;97697;-29
2023/04/12 05:19:13;;;;;;;1.55;1.05;;;;;;;8.53;100.00;99872.81;5012321;28;97822;-30
2023/04/12 05:21:39;;;;;;;0.68;0.60;;;;;;;8.56;100.00;99871.78;5012087;28;96463;-30
2023/04/12 05:24:04;;;;;;;2.03;0.80;;;;;;;8.55;100.00;99867.34;5011635;28;96953;-30
2023/04/12 05:26:31;;;;;;;1.13;0.80;;;;;;;8.59;100.00;99864.31;5011485;28;97943;-29
2023/04/12 05:28:57;;;;;;;0.88;0.82;;;;;;;8.61;100.00;99870.47;5010022;28;100933;-30
2023/04/12 05:31:23;;;;;;;0.85;0.65;;;;;;;8.63;100.00;99873.94;5011930;28;96522;-29
2023/04/12 05:33:48;;;;;;;3.42;0.68;;;;;;;8.62;100.00;99868.66;5012280;28;96805;-30
2023/04/12 05:36:14;;;;;;;0.85;0.73;;;;;;;8.64;100.00;99862.16;5015317;28;96933;-30
2023/04/12 05:38:39;;;;;;;0.80;0.70;;;;;;;8.66;100.00;99868.31;5015326;28;98134;-31
2023/04/12 05:41:05;;;;;;;1.25;0.85;;;;;;;8.70;100.00;99875.25;5015446;28;96652;-30
2023/04/12 05:43:31;;;;;;;2.60;0.93;;;;;;;8.73;100.00;99879.56;5015492;28;96717;-30
2023/04/12 05:45:57;;;;;;;0.88;0.80;;;;;;;8.75;100.00;99884.84;5013686;28;101213;-30
2023/04/12 05:48:22;;;;;;;1.02;0.93;;;;;;;8.76;100.00;99881.19;5014922;28;99253;-30
2023/04/12 05:50:52;;;;;;;0.85;0.68;;;;;;;8.78;100.00;99874.72;5014554;28;96504;-30
2023/04/12 05:53:17;;;;;;;0.70;0.70;;;;;;;8.76;100.00;99868.53;5013747;28;96871;-30
2023/04/12 05:55:43;;;;;;;1.23;0.55;;;;;;;8.78;100.00;99863.06;5013514;28;100904;-30
2023/04/12 05:58:09;;;;;;;0.90;0.57;;;;;;;8.78;99.75;99866.59;5014808;28;97893;-30
2023/04/12 06:00:35;;;;;;;1.05;0.30;;;;;;;8.79;100.00;99870.16;5013627;28;96725;-30
2023/04/12 06:03:00;;;;;;;0.85;0.60;;;;;;;8.81;99.73;99879.03;5014911;28;96606;-30
2023/04/12 06:05:25;;;;;;;5.68;1.10;;;;;;;8.79;99.91;99887.22;5015015;28;98307;-30
2023/04/12 06:07:51;;;;;;;1.80;0.57;;;;;;;8.79;99.54;99871.03;5014905;28;100349;-30
2023/04/12 06:10:16;;;;;;;1.40;0.60;;;;;;;8.82;99.25;99868.13;5014993;28;96450;-30
2023/04/12 06:12:42;;;;;;;3.42;0.80;;;;;;;8.86;98.86;99869.63;5014916;28;96710;-31
2023/04/12 06:15:07;;;;;;;1.60;0.40;;;;;;;8.89;98.18;99882.03;5013944;28;99027;-30
2023/04/12 06:17:35;;;;;;;0.68;0.30;;;;;;;8.88;98.78;99875.78;5014332;28;99212;-30
2023/04/12 06:20:00;;;;;;;3.75;0.50;;;;;;;8.89;98.22;99860.44;5014788;28;96475;-30
2023/04/12 06:22:25;;;;;;;2.78;0.77;;;;;;;8.92;98.59;99871.03;5014822;28;96718;-29
2023/04/12 06:24:51;;;;;;;0.85;0.43;;;;;;;8.91;98.06;99866.59;5014554;28;97999;-30
2023/04/12 06:27:16;;;;;;;1.52;0.60;;;;;;;8.92;97.55;99861.09;5014149;28;98828;-30
2023/04/12 06:29:42;;;;;;;1.48;0.38;;;;;;;8.92;98.00;99868.34;5014506;28;96431;-32
2023/04/12 06:32:07;;;;;;;5.40;1.20;;;;;;;8.92;97.74;99868.34;5014926;28;96789;-30
2023/04/12 06:34:32;;;;;;;2.92;1.25;;;;;;;8.90;97.71;99863.03;5014457;28;97315;-29
2023/04/12 06:36:58;;;;;;;5.80;1.40;;;;;;;8.90;98.32;99867.59;5014380;28;98376;-30
2023/04/12 06:39:24;;;;;;;3.38;1.33;;;;;;;8.90;98.04;99864.88;5013943;28;96515;-31
2023/04/12 06:41:49;;;;;;;2.70;1.00;;;;;;;8.89;98.22;99860.44;5014189;28;96863;-29
2023/04/12 06:44:15;;;;;;;5.30;1.05;;;;;;;8.91;97.71;99863.91;5013595;28;99486;-30
2023/04/12 06:46:41;;;;;;;1.67;0.70;;;;;;;8.93;97.52;99876.31;5014239;28;97897;-30
2023/04/12 06:49:06;;;;;;;1.35;0.63;;;;;;;8.94;98.05;99871.81;5014359;28;96484;-30
2023/04/12 06:51:33;;;;;;;3.20;0.93;;;;;;;8.97;98.05;99876.13;5014462;28;96724;-30
2023/04/12 06:53:58;;;;;;;2.50;0.47;;;;;;;8.97;97.54;99873.44;5012703;28;100913;-31
2023/04/12 06:56:24;;;;;;;2.05;0.50;;;;;;;8.99;95.98;99871.47;5014413;28;97791;-30
2023/04/12 06:58:49;;;;;;;2.55;0.43;;;;;;;8.97;96.19;99878.81;5013904;28;96530;-30
2023/04/12 07:01:14;;;;;;;10.98;1.02;;;;;;;8.96;95.93;99877.06;5014181;28;96780;-30
2023/04/12 07:03:40;;;;;;;1.55;0.40;;;;;;;8.99;95.73;99872.34;5013317;28;99105;-30
2023/04/12 07:06:05;;;;;;;3.40;1.08;;;;;;;9.01;95.56;99862.28;5013933;28;97772;-29
2023/04/12 07:08:35;;;;;;;0.77;0.30;;;;;;;9.03;95.64;99876.53;5013908;28;96472;-31
2023/04/12 07:11:01;;;;;;;6.85;0.65;;;;;;;9.03;94.46;99871.13;5012521;28;96767;-32
2023/04/12 07:13:27;;;;;;;0.75;0.50;;;;;;;9.04;94.12;99864.78;4995629;28;100825;-30
2023/04/12 07:15:53;;;;;;;2.95;0.50;;;;;;;9.12;93.94;99869.63;5013723;28;97712;-30
2023/04/12 07:18:19;;;;;;;7.53;0.85;;;;;;;9.14;92.37;99867.69;5013594;28;96565;-30
2023/04/12 07:20:49;;;;;;;4.80;0.47;;;;;;;9.19;92.79;99856.53;5014221;28;96685;-30
2023/04/12 07:23:15;;;;;;;2.72;0.63;;;;;;;9.22;92.56;99857.16;5013112;28;97875;-30
2023/04/12 07:25:40;;;;;;;4.80;0.65;;;;;;;9.23;91.82;99860.75;5012035;28;101243;-29
2023/04/12 07:28:05;;;;;;;2.40;0.68;;;;;;;9.19;90.09;99853.84;5012742;28;96644;-30
2023/04/12 07:30:31;;;;;;;0.70;0.35;;;;;;;9.21;90.53;99841.94;5014082;28;96703;-30
2023/04/12 07:32:56;;;;;;;6.85;0.52;;;;;;;9.62;91.54;99838.06;5013714;28;97864;-30
2023/04/12 07:35:22;;;;;;;4.10;0.57;;;;;;;10.07;90.97;99822.06;5011940;28;98921;-30
2023/04/12 07:37:47;;;;;;;1.92;0.75;;;;;;;10.55;89.95;99835.53;5013502;28;96841;-30
2023/04/12 07:40:12;;;;;;;7.47;1.17;;;;;;;10.90;87.40;99822.91;5013366;28;96489;-30
2023/04/12 07:42:38;;;;;;;4.93;1.00;;;;;;;11.34;86.17;99826.59;5013515;28;97242;-32
2023/04/12 07:45:03;;;;;;;6.20;1.55;;;;;;;11.60;84.98;99814.47;5013463;28;108260;-31
2023/04/12 07:47:29;;;;;;;6.47;0.90;;;;;;;11.78;83.43;99825.66;5013417;28;96480;-31
2023/04/12 07:49:54;;;;;;;5.43;1.20;;;;;;;11.83;82.97;99823.44;5013338;28;96755;-30
2023/04/12 07:52:20;;;;;;;2.38;0.60;;;;;;;11.90;81.93;99815.69;5012533;28;99307;-29
2023/04/12 07:54:45;;;;;;;3.50;0.57;;;;;;;12.06;82.73;99813.41;5013110;28;97743;-30
2023/04/12 07:57:11;;;;;;;7.60;0.60;;;;;;;12.21;80.27;99821.22;5012292;28;96524;-30
2023/04/12 07:59:36;;;;;;;4.05;0.52;;;;;;;12.41;81.34;99817.66;5013373;28;96652;-30
2023/04/12 08:02:02;;;;;;;2.35;0.77;;;;;;;12.61;79.57;99818.66;5012754;28;99307;-30
2023/04/12 08:04:27;;;;;;;4.50;0.85;;;;;;;12.40;78.18;99825.97;5012724;28;99113;-30
2023/04/12 08:06:53;;;;;;;4.68;0.93;;;;;;;12.25;79.50;99822.66;5013525;28;96685;-30
2023/04/12 08:09:19;;;;;;;3.22;0.75;;;;;;;12.12;80.07;99817.44;5012072;28;96826;-30
2023/04/12 08:11:46;;;;;;;1.73;0.80;;;;;;;11.99;79.98;99822.16;5012940;28;97791;-30
2023/04/12 08:14:12;;;;;;;1.90;0.63;;;;;;;11.86;80.56;99817.72;5011318;28;99132;-31
2023/04/12 08:16:37;;;;;;;8.60;0.98;;;;;;;11.87;81.04;99830.38;5010949;28;96957;-30
2023/04/12 08:19:03;;;;;;;7.38;1.00;;;;;;;11.85;81.07;99826.88;5012752;28;97093;-31
2023/04/12 08:21:28;;;;;;;4.45;1.25;;;;;;;12.01;80.08;99815.66;5012828;28;98297;-30
2023/04/12 08:23:54;;;;;;;6.03;1.02;;;;;;;11.93;77.69;99817.28;5011957;28;98851;-30
2023/04/12 08:26:20;;;;;;;6.97;0.82;;;;;;;11.82;79.18;99824.44;5012975;28;96546;-30
2023/04/12 08:28:45;;;;;;;1.17;0.60;;;;;;;11.71;79.05;99816.31;5012418;28;96741;-30
2023/04/12 08:31:11;;;;;;;7.05;0.93;;;;;;;11.63;78.70;99824.22;5012595;28;98037;-31
2023/04/12 08:33:37;;;;;;;9.45;1.23;;;;;;;11.58;79.34;99824.59;5012627;28;99770;-29
2023/04/12 08:36:02;;;;;;;5.78;0.73;;;;;;;11.54;78.51;99825.00;5013054;28;96463;-31
2023/04/12 08:38:28;;;;;;;4.05;0.85;;;;;;;11.50;78.83;99816.22;5012223;28;96779;-30
2023/04/12 08:40:53;;;;;;;7.82;0.93;;;;;;;11.55;79.09;99824.00;5011864;28;98431;-31
2023/04/12 08:43:21;;;;;;;4.45;1.02;;;;;;;11.62;77.94;99817.06;5012348;28;97783;-30
2023/04/12 08:45:48;;;;;;;2.55;1.00;;;;;;;11.72;78.14;99820.75;5012422;28;96602;-31
2023/04/12 08:48:15;;;;;;;2.75;0.70;;;;;;;11.73;77.57;99821.59;5010983;28;96659;-30
2023/04/12 08:50:43;;;;;;;2.95;0.73;;;;;;;11.71;78.07;99820.88;5012296;28;97962;-30
2023/04/12 08:53:09;;;;;;;2.05;0.80;;;;;;;11.66;78.04;99821.25;5012071;28;98940;-30
2023/04/12 08:55:35;;;;;;;4.80;1.05;;;;;;;11.63;78.04;99827.81;5010893;28;96574;-31
2023/04/12 08:58:06;;;;;;;6.75;1.25;;;;;;;11.55;77.50;99822.13;5012361;28;96801;-30
2023/04/12 09:00:32;;;;;;;2.15;0.75;;;;;;;11.52;77.83;99824.25;5010739;28;100900;-30
2023/04/12 09:02:58;;;;;;;2.50;0.60;;;;;;;11.43;76.16;99823.16;5010805;28;100970;-31
2023/04/12 09:05:28;;;;;;;1.33;0.52;;;;;;;11.44;76.25;99827.56;5011741;28;96723;-30
2023/04/12 09:07:54;;;;;;;2.28;0.65;;;;;;;11.45;76.36;99819.31;5010512;28;96855;-31
2023/04/12 09:10:37;;;;;;;5.18;0.77;;;;;;;11.51;77.28;99825.22;5012181;28;97842;-30
2023/04/12 09:13:03;;;;;;;2.72;0.90;;;;;;;11.48;74.21;99824.47;5012002;28;99527;-30
2023/04/12 09:15:29;;;;;;;1.33;0.28;;;;;;;11.44;74.91;99824.84;5010653;28;96729;-30
2023/04/12 09:18:09;;;;;;;4.20;0.75;;;;;;;11.39;74.79;99825.25;5011929;28;96815;-31
2023/04/12 09:20:35;;;;;;;6.70;0.70;;;;;;;11.45;74.34;99822.03;5011852;28;99362;-30
2023/04/12 09:23:15;;;;;;;1.58;0.32;;;;;;;11.50;74.19;99828.94;5009707;28;101192;-30
2023/04/12 09:25:47;;;;;;;4.10;1.00;;;;;;;11.54;74.17;99812.28;5010007;28;96705;-29
2023/04/12 09:28:26;;;;;;;4.38;0.77;;;;;;;11.61;74.16;99812.66;5011731;28;96700;-31
2023/04/12 09:30:53;;;;;;;4.78;1.13;;;;;;;11.65;74.28;99814.94;5009641;28;100857;-32
2023/04/12 09:33:33;;;;;;;4.45;1.23;;;;;;;11.71;73.01;99816.31;5009548;28;100848;-30
2023/04/12 09:36:08;;;;;;;3.72;0.88;;;;;;;11.91;74.53;99817.38;5011892;28;96639;-30
2023/04/12 09:38:35;;;;;;;4.13;0.85;;;;;;;12.27;73.26;99818.84;5011607;28;96574;-30
2023/04/12 09:41:24;;;;;;;2.88;0.73;;;;;;;12.29;73.43;99806.00;5011327;28;99639;-30
2023/04/12 09:43:50;;;;;;;5.70;1.10;;;;;;;12.21;73.13;99813.94;4991278;28;98893;-30
2023/04/12 09:46:15;;;;;;;2.67;0.98;;;;;;;12.21;73.27;99818.53;4991997;28;96608;-30
2023/04/12 09:48:48;;;;;;;2.88;1.20;;;;;;;12.15;73.05;99810.88;4992017;28;96833;-31
2023/04/12 09:51:29;;;;;;;5.45;1.02;;;;;;;12.11;72.45;99818.44;4991688;28;97359;-30
2023/04/12 09:53:58;;;;;;;2.08;0.75;;;;;;;12.15;73.00;99814.44;4991438;28;99505;-30
2023/04/12 09:56:27;;;;;;;5.13;0.90;;;;;;;12.26;72.52;99817.13;4989624;28;97334;-30
2023/04/12 09:58:54;;;;;;;4.63;0.68;;;;;;;12.48;70.99;99820.72;4991447;28;96829;-30
2023/04/12 10:01:22;;;;;;;3.58;1.02;;;;;;;12.46;70.39;99814.53;4989869;28;101296;-31
2023/04/12 10:03:48;;;;;;;7.07;0.90;;;;;;;12.36;69.50;99822.63;4989875;28;100922;-30
2023/04/12 10:06:14;;;;;;;5.00;0.90;;;;;;;12.39;68.03;99824.22;4991288;28;96609;-30
2023/04/12 10:08:41;;;;;;;3.65;0.70;;;;;;;12.32;66.84;99824.75;4990103;28;96872;-30
2023/04/12 10:11:06;;;;;;;4.53;1.13;;;;;;;12.45;68.69;99840.00;4991405;28;97228;-31
2023/04/12 10:13:32;;;;;;;2.97;1.02;;;;;;;12.47;69.01;99832.59;4991680;28;97728;-30
2023/04/12 10:15:59;;;;;;;4.60;0.63;;;;;;;12.54;68.30;99839.22;4989914;28;96735;-32
2023/04/12 10:18:26;;;;;;;1.60;0.52;;;;;;;12.97;63.68;99832.75;4989978;28;96852;-33
2023/04/12 10:20:51;;;;;;;3.65;0.73;;;;;;;13.24;66.17;99834.03;4992532;28;100998;-30
2023/04/12 10:23:17;;;;;;;2.78;0.88;;;;;;;13.73;63.96;99844.09;4992574;28;100933;-29
2023/04/12 10:25:47;;;;;;;1.17;0.40;;;;;;;13.92;61.36;99834.22;4993307;28;96594;-30
2023/04/12 10:28:14;;;;;;;0.95;0.50;;;;;;;13.89;58.21;99840.81;4994119;28;96765;-30
2023/04/12 10:30:40;;;;;;;0.98;0.50;;;;;;;13.89;60.57;99843.53;4994047;28;99053;-30
2023/04/12 10:33:07;;;;;;;0.95;0.30;;;;;;;13.71;58.50;99837.94;4994223;28;97691;-30
2023/04/12 10:35:51;;;;;;;2.55;0.65;;;;;;;13.65;59.70;99834.91;4994296;28;96546;-30
2023/04/12 10:38:16;;;;;;;6.20;0.70;;;;;;;13.86;58.77;99826.66;4994643;28;96666;-30
2023/04/12 10:41:20;;;;;;;3.88;1.05;;;;;;;14.09;58.09;99833.56;4994290;28;97931;-30
2023/04/12 10:43:50;;;;;;;1.02;0.65;;;;;;;14.45;57.09;99834.69;4991103;28;99358;-30
2023/04/12 10:46:37;;;;;;;1.60;0.45;;;;;;;14.39;57.38;99827.09;4992392;28;97379;-30
2023/04/12 10:49:28;;;;;;;6.68;0.90;;;;;;;14.06;58.11;99827.50;4994325;28;96773;-32
2023/04/12 10:52:02;;;;;;;2.50;0.50;;;;;;;13.87;55.91;99831.97;4988915;28;97910;-30
2023/04/12 10:54:28;;;;;;;1.15;0.60;;;;;;;13.74;55.57;99828.63;4990093;28;100920;-30
2023/04/12 10:56:54;;;;;;;1.58;0.40;;;;;;;13.58;53.93;99819.13;4991582;28;96765;-31
2023/04/12 10:59:20;;;;;;;1.23;0.38;;;;;;;13.87;55.02;99834.69;4992012;28;97022;-31
2023/04/12 11:02:03;;;;;;;1.55;0.55;;;;;;;14.17;53.67;99830.97;4991603;28;99408;-31
2023/04/12 11:04:29;;;;;;;4.07;0.30;;;;;;;14.10;54.72;99838.00;4991945;28;97879;-31
2023/04/12 11:06:58;;;;;;;2.50;0.77;;;;;;;13.78;53.80;99830.94;4993346;28;96968;-31
2023/04/12 11:09:32;;;;;;;0.50;0.28;;;;;;;13.47;50.50;99840.16;4992468;28;96798;-30
2023/04/12 11:12:19;;;;;;;1.35;0.40;;;;;;;13.90;54.34;99847.16;4993538;28;98061;-30
2023/04/12 11:14:51;;;;;;;1.23;0.52;;;;;;;13.73;50.64;99846.81;4992218;28;100946;-30
2023/04/12 11:17:16;;;;;;;0.47;0.20;;;;;;;13.65;50.51;99851.22;4992637;28;96782;-30
2023/04/12 11:19:45;;;;;;;3.40;0.50;;;;;;;13.55;48.78;99846.63;4993802;28;96886;-31
2023/04/12 11:22:15;;;;;;;1.63;0.30;;;;;;;13.78;48.33;99849.13;4992200;28;100866;-30
2023/04/12 11:24:58;;;;;;;2.50;0.60;;;;;;;13.60;50.89;99852.50;4991766;28;100814;-30
2023/04/12 11:27:25;;;;;;;4.45;0.57;;;;;;;13.51;51.96;99866.94;4991912;28;96761;-31
2023/04/12 11:29:54;;;;;;;7.97;0.57;;;;;;;13.35;49.53;99858.44;4992484;28;96838;-31
2023/04/12 11:32:21;;;;;;;1.75;0.57;;;;;;;13.32;51.44;99855.97;4991336;28;100873;-29
2023/04/12 11:34:46;;;;;;;1.92;0.40;;;;;;;13.25;53.13;99847.50;4992161;28;100897;-31
2023/04/12 11:37:12;;;;;;;1.85;0.47;;;;;;;13.06;52.53;99848.25;4993155;28;96565;-30